Latest Weather Observations for Kalgoorlie-Boulder

IDW60801

Issued at 8:03 pm WST Sunday 19 November 2017 (issued every 30 minutes, with the page automatically refreshed every 10 minutes)

About weather observations | Map of weather stations | Latest weather observations for WA | Other Formats
Station Details ID: 012038 Name: KALGOORLIE-BOULDER AIRPORT Lat: -30.78 Lon: 121.45 Height: 365.3 m
Data from the previous 72 hours. | See also: Recent months at Kalgoorlie-Boulder
Date/Time
WST
Temp
°C
App
Temp
°C
Dew
Point
°C
Rel
Hum
%
Delta-T
°C
Wind Press
QNH
hPa
Press
MSL
hPa
Rain since
9am
mm
Dir  Spd
km/h
Gust
km/h
Spd
kts
Gust
kts
19/08:00pm 23.2 21.2 11.6 48 6.6 SE 13 15 7 8 1012.8 - 0.2
19/07:30pm 23.9 21.6 11.6 46 7.1 SE 15 19 8 10 1012.5 - 0.2
19/07:00pm 24.6 21.5 11.5 44 7.5 SE 19 24 10 13 1012.3 - 0.2
19/06:30pm 25.4 22.3 11.6 42 8.0 SE 19 24 10 13 1012.0 - 0.2
19/06:00pm 26.4 23.1 10.9 38 8.9 SE 19 24 10 13 1011.5 1010.0 0.2
19/05:30pm 26.8 24.3 9.6 34 9.7 SSE 13 19 7 10 1011.2 - 0.2
19/05:00pm 27.4 25.4 10.2 34 9.8 SE 11 22 6 12 1011.0 - 0.2
19/04:30pm 27.7 25.8 10.4 34 9.9 E 11 19 6 10 1011.0 - 0.2
19/04:00pm 27.4 25.8 10.2 34 9.8 E 9 15 5 8 1010.9 - 0.2
19/03:30pm 26.9 25.5 9.7 34 9.7 ESE 7 13 4 7 1011.0 - 0.2
19/03:00pm 26.6 24.2 9.9 35 9.4 SSE 13 22 7 12 1011.1 1009.6 0.2
19/02:30pm 26.7 24.5 10.8 37 9.1 NE 13 19 7 10 1011.1 - 0.2
19/02:00pm 26.3 23.6 10.5 37 9.0 E 15 24 8 13 1011.4 - 0.2
19/01:30pm 25.7 22.9 11.5 41 8.2 SE 17 24 9 13 1011.6 - 0.2
19/01:00pm 25.9 24.8 12.0 42 8.1 SE 9 17 5 9 1011.9 - 0.2
19/12:30pm 25.7 24.1 12.9 45 7.6 SSE 13 37 7 20 1012.0 - 0.2
19/12:00pm 24.5 22.8 12.5 47 7.0 SE 13 24 7 13 1012.2 1010.6 0.2
19/11:30am 24.2 22.2 11.5 45 7.3 SSE 13 20 7 11 1012.5 - 0.2
19/11:00am 24.0 21.6 12.6 49 6.6 SSE 17 24 9 13 1012.7 - 0.2
19/10:30am 22.7 20.8 11.7 49 6.3 SSE 13 22 7 12 1012.9 - 0.2
19/10:00am 21.7 20.6 13.1 58 5.0 S 11 20 6 11 1013.0 - 0.0
19/09:30am 20.9 18.3 13.1 61 4.5 S 19 26 10 14 1013.2 - 0.0
19/09:00am 20.1 19.2 13.6 66 3.8 S 11 17 6 9 1013.1 1011.6 12.2
19/08:30am 19.4 17.1 12.9 66 3.7 SSE 17 26 9 14 1013.0 - 12.2
19/08:00am 19.2 17.4 13.4 69 3.4 S 15 20 8 11 1012.9 - 12.2
19/07:30am 18.2 16.3 13.1 72 2.9 S 15 20 8 11 1012.9 - 12.2
19/07:00am 17.7 15.9 13.2 75 2.6 SSW 15 22 8 12 1012.6 - 12.2
19/06:30am 17.3 17.0 12.6 74 2.7 S 6 11 3 6 1012.3 - 12.2
19/06:00am 15.9 16.4 11.5 75 2.4 CALM 0 0 0 0 1011.8 1010.2 12.2
19/05:30am 15.2 14.5 11.4 78 2.1 WSW 6 9 3 5 1011.2 - 12.2
19/05:00am 14.2 12.1 11.2 82 1.6 WSW 13 15 7 8 1010.7 - 12.2
19/04:30am 14.3 12.6 11.3 82 1.6 WSW 11 15 6 8 1010.5 - 12.2
19/04:00am 14.3 13.0 11.1 81 1.7 WSW 9 11 5 6 1010.5 - 12.2
19/03:30am 14.4 13.1 11.2 81 1.7 W 9 11 5 6 1010.6 - 12.2
19/03:00am 14.8 13.4 10.8 77 2.2 WSW 9 11 5 6 1010.4 1008.9 12.2
19/02:30am 14.7 14.2 10.9 78 2.0 WSW 4 7 2 4 1010.7 - 12.2
19/02:00am 15.3 14.3 10.9 75 2.4 S 7 9 4 5 1010.7 - 12.2
19/01:30am 16.3 14.0 10.4 68 3.2 SW 13 17 7 9 1010.7 - 12.2
19/01:00am 16.6 13.9 10.2 66 3.4 WSW 15 22 8 12 1010.7 - 12.2
19/12:30am 16.6 14.6 10.2 66 3.4 W 11 19 6 10 1010.9 - 12.2
19/12:00am 16.7 14.2 9.6 63 3.8 W 13 19 7 10 1011.1 1009.6 12.2
 
Date/Time
WST
Temp
°C
App
Temp
°C
Dew
Point
°C
Rel
Hum
%
Delta-T
°C
Wind Press
QNH
hPa
Press
MSL
hPa
Rain since
9am
mm
Dir  Spd
km/h
Gust
km/h
Spd
kts
Gust
kts
18/11:30pm 17.0 14.6 10.1 64 3.7 W 13 19 7 10 1011.1 - 12.2
18/11:00pm 16.3 14.4 10.4 68 3.2 SW 11 13 6 7 1011.1 - 12.2
18/10:30pm 17.1 14.7 10.0 63 3.8 W 13 17 7 9 1011.1 - 12.2
18/10:00pm 17.4 15.3 9.8 61 4.1 W 11 15 6 8 1011.2 - 12.2
18/09:30pm 17.6 16.1 10.5 63 3.9 W 9 11 5 6 1011.0 - 12.2
18/09:00pm 18.1 16.3 10.7 62 4.1 W 11 15 6 8 1010.9 1009.4 12.2
18/08:30pm 18.9 15.5 11.2 61 4.3 W 20 32 11 17 1010.6 - 12.2
18/08:00pm 18.9 16.8 11.0 60 4.4 W 13 17 7 9 1010.2 - 12.2
18/07:30pm 19.1 17.2 10.4 57 4.8 W 11 17 6 9 1009.7 - 12.2
18/07:00pm 19.4 17.0 10.1 55 5.1 WNW 13 19 7 10 1008.9 - 12.2
18/06:30pm 19.9 16.3 9.8 52 5.5 W 19 28 10 15 1008.4 - 12.2
18/06:00pm 20.9 16.9 8.9 46 6.5 W 20 32 11 17 1007.5 1006.0 12.2
18/05:30pm 20.6 16.8 9.8 50 5.9 W 20 28 11 15 1007.4 - 12.2
18/05:00pm 20.8 15.8 9.7 49 6.1 W 26 39 14 21 1007.2 - 12.2
18/04:30pm 20.5 14.8 9.7 50 5.9 W 30 43 16 23 1006.9 - 12.2
18/04:00pm 19.4 15.8 10.7 57 4.8 WSW 20 32 11 17 1007.0 - 12.2
18/03:30pm 17.8 14.1 11.4 66 3.5 WSW 22 33 12 18 1006.9 - 12.2
18/03:00pm 16.1 9.1 12.5 79 2.0 WSW 41 61 22 33 1007.3 1005.7 12.2
18/02:30pm 15.6 9.6 15.4 99 0.1 W 41 59 22 32 1007.5 - 12.2
18/02:27pm 15.3 8.6 15.1 99 0.1 W 44 65 24 35 1006.9 - 12.2
18/02:11pm 13.5 5.0 13.3 99 0.1 WSW 50 96 27 52 1006.2 - 12.0
18/02:09pm 13.5 4.7 13.3 99 0.1 WSW 52 96 28 52 1006.6 - 12.0
18/02:00pm 13.5 -0.1 12.7 95 0.4 W 76 107 41 58 1006.6 - 7.6
18/01:55pm 17.4 5.3 13.1 76 2.5 W 69 106 37 57 1007.8 - 0.2
18/01:54pm 21.6 10.4 12.5 56 5.2 WNW 63 95 34 51 1007.6 - 0.2
18/01:52pm 24.6 19.1 13.5 50 6.6 W 35 59 19 32 1006.3 - 0.2
18/01:48pm 24.5 19.3 13.4 50 6.6 W 33 50 18 27 1005.3 - 0.2
18/01:38pm 24.4 19.5 12.7 48 6.8 SSW 30 48 16 26 1003.2 - 0.2
18/01:30pm 24.9 19.7 13.5 49 6.8 SSW 33 46 18 25 1003.0 - 0.2
18/01:09pm 27.8 22.8 14.1 43 8.3 SW 33 52 18 28 1004.1 - 0.2
18/01:00pm 26.3 21.0 13.1 44 7.8 SSW 33 48 18 26 1004.4 - 0.2
18/12:30pm 26.6 20.4 13.7 45 7.7 SW 39 50 21 27 1004.3 - 0.2
18/12:00pm 25.7 18.5 13.2 46 7.4 SW 43 56 23 30 1004.9 1003.3 0.2
18/11:36am 29.2 22.9 12.2 35 10.1 WSW 37 50 20 27 1004.5 - 0.2
18/11:30am 32.5 29.3 11.1 27 12.6 WNW 19 35 10 19 1004.4 - 0.2
18/11:00am 31.8 28.5 11.0 28 12.2 N 19 30 10 16 1004.3 - 0.2
18/10:30am 30.3 29.5 11.8 32 10.9 W 7 15 4 8 1005.2 - 0.2
18/10:00am 29.5 28.6 11.5 33 10.6 E 7 15 4 8 1005.5 - 0.2
18/09:30am 28.0 26.2 12.0 37 9.4 ESE 13 24 7 13 1005.7 - 0.2
18/09:00am 27.1 25.0 12.3 39 8.7 ESE 15 24 8 13 1005.9 1004.4 2.0
18/08:30am 25.9 22.9 12.4 43 7.9 SE 20 30 11 16 1006.2 - 2.0
18/08:00am 24.9 22.0 12.8 47 7.1 SE 20 28 11 15 1006.5 - 2.0
18/07:30am 24.4 22.1 13.0 49 6.7 SSE 17 24 9 13 1006.6 - 2.0
18/07:00am 22.9 21.4 13.1 54 5.7 SSE 13 20 7 11 1006.8 - 2.0
18/06:30am 21.4 20.6 14.1 63 4.3 S 11 15 6 8 1006.7 - 2.0
18/06:00am 21.0 21.2 14.2 65 4.0 S 6 9 3 5 1006.8 1005.2 2.0
18/05:30am 20.9 19.6 13.8 64 4.2 SSW 13 15 7 8 1006.3 - 2.0
18/05:00am 21.1 19.5 13.8 63 4.3 SW 15 19 8 10 1006.1 - 2.0
18/04:30am 21.3 19.6 13.7 62 4.5 SW 15 19 8 10 1005.6 - 2.0
18/04:00am 21.6 21.7 14.0 62 4.5 SSW 6 11 3 6 1005.9 - 2.0
18/03:30am 21.8 19.4 13.9 61 4.7 SSW 19 22 10 12 1004.7 - 2.0
18/03:00am 22.0 19.9 13.6 59 5.0 SW 17 22 9 12 1005.3 1003.8 2.0
18/02:30am 23.2 20.4 12.5 51 6.2 SW 19 28 10 15 1005.9 - 2.0
18/02:00am 23.3 21.2 12.3 50 6.4 SW 15 20 8 11 1005.4 - 2.0
18/01:30am 23.8 21.1 11.8 47 6.9 SW 17 22 9 12 1005.5 - 2.0
18/01:00am 24.3 21.8 10.9 43 7.6 SW 15 24 8 13 1005.7 - 2.0
18/12:30am 23.9 22.5 10.9 44 7.4 SW 9 15 5 8 1005.8 - 2.0
18/12:00am 25.0 22.3 10.5 40 8.2 SW 15 26 8 14 1005.5 1004.0 2.0
 
Date/Time
WST
Temp
°C
App
Temp
°C
Dew
Point
°C
Rel
Hum
%
Delta-T
°C
Wind Press
QNH
hPa
Press
MSL
hPa
Rain since
9am
mm
Dir  Spd
km/h
Gust
km/h
Spd
kts
Gust
kts
17/11:30pm 26.3 23.5 10.0 36 9.2 WSW 15 24 8 13 1005.8 - 2.0
17/11:00pm 27.2 22.5 9.1 32 10.1 SW 24 35 13 19 1005.2 - 2.0
17/10:30pm 28.8 24.0 7.4 26 11.7 WSW 22 33 12 18 1005.0 - 2.0
17/10:00pm 29.5 26.4 7.4 25 12.1 WNW 13 19 7 10 1004.5 - 1.8
17/09:30pm 29.2 27.1 8.3 27 11.6 NW 9 13 5 7 1004.2 - 1.8
17/09:00pm 29.8 27.4 8.8 27 11.9 NW 11 17 6 9 1004.2 1002.6 1.8
17/08:30pm 29.8 27.6 10.9 31 11.0 NW 13 20 7 11 1003.9 - 1.8
17/08:00pm 28.6 27.4 12.9 38 9.4 N 11 17 6 9 1003.5 - 1.8
17/07:30pm 28.5 26.8 12.4 37 9.5 N 13 44 7 24 1003.9 - 1.8
17/07:25pm 28.6 24.8 13.7 40 9.0 N 26 44 14 24 1004.3 - 1.0
17/07:00pm 34.1 28.0 4.7 16 15.8 NW 26 43 14 23 1002.8 - 0.0
17/06:30pm 34.6 29.0 3.2 14 16.6 NNW 22 32 12 17 1002.4 - 0.0
17/06:00pm 35.1 27.8 2.6 13 17.1 N 30 54 16 29 1002.0 1000.4 0.0
17/05:38pm 35.6 27.6 1.8 12 17.5 NNW 33 52 18 28 1001.8 - 0.0
17/05:30pm 35.9 27.6 2.1 12 17.6 NW 35 48 19 26 1001.9 - 0.0
17/05:29pm 35.9 27.0 0.9 11 17.9 NW 37 48 20 26 1001.8 - 0.0
17/05:03pm 37.2 29.0 -0.9 9 19.1 N 32 50 17 27 1001.7 - 0.0
17/05:00pm 37.0 28.8 0.4 10 18.7 NNW 33 50 18 27 1001.7 - 0.0
17/04:37pm 37.1 28.7 1.8 11 18.5 NNW 35 54 19 29 1001.6 - 0.0
17/04:30pm 37.1 28.4 1.8 11 18.5 NNW 37 54 20 29 1001.7 - 0.0
17/04:00pm 37.8 28.9 1.0 10 19.1 NNW 37 56 20 30 1001.8 - 0.0
17/03:30pm 38.3 29.1 1.3 10 19.3 NNW 39 61 21 33 1001.7 - 0.0
17/03:00pm 38.2 29.8 1.3 10 19.3 NNW 35 56 19 30 1001.9 1000.3 0.0
17/02:30pm 38.9 29.9 0.3 9 19.9 NNW 37 57 20 31 1002.1 - 0.0
17/02:01pm 38.0 29.5 1.1 10 19.2 NNW 35 56 19 30 1002.4 - 0.0
17/02:00pm 37.9 29.4 1.0 10 19.1 NNW 35 50 19 27 1002.4 - 0.0
17/01:30pm 38.8 29.7 1.7 10 19.6 NNW 39 57 21 31 1002.8 - 0.0
17/01:00pm 38.5 31.4 1.5 10 19.4 NNW 28 54 15 29 1003.4 - 0.0
17/12:30pm 37.2 30.8 5.3 14 17.6 N 28 46 15 25 1003.9 - 0.0
17/12:25pm 36.2 29.5 3.4 13 17.5 N 28 46 15 25 1004.0 - 0.0
17/12:00pm 36.8 29.4 3.9 13 17.8 NNW 32 41 17 22 1004.4 1002.8 0.0
17/11:30am 35.7 29.7 5.1 15 16.7 NNE 26 41 14 22 1005.1 - 0.0
17/11:00am 35.4 28.3 6.6 17 16.1 N 33 50 18 27 1005.7 - 0.0
17/10:35am 34.8 28.8 7.0 18 15.6 N 28 46 15 25 1006.1 - 0.0
17/10:30am 34.9 28.5 7.1 18 15.6 N 30 43 16 23 1006.1 - 0.0
17/10:00am 34.0 27.4 7.9 20 14.8 N 32 54 17 29 1006.5 - 0.0
17/09:37am 32.2 24.9 7.1 21 13.9 N 35 54 19 29 1007.0 - 0.0
17/09:30am 32.3 25.5 7.9 22 13.7 N 33 48 18 26 1007.0 - 0.0
17/09:17am 31.0 25.1 7.5 23 13.0 N 28 46 15 25 1007.2 - 0.0
17/09:00am 30.3 24.0 7.5 24 12.6 N 30 44 16 24 1007.5 1006.0 0.0
17/08:30am 29.7 22.9 7.6 25 12.2 N 33 43 18 23 1007.8 - 0.0
17/08:00am 27.9 22.0 7.7 28 11.1 NNE 28 44 15 24 1007.8 - 0.0
17/07:30am 26.6 20.2 7.1 29 10.5 NNE 30 43 16 23 1007.8 - 0.0
17/07:00am 25.2 19.4 6.4 30 9.9 NNE 26 39 14 21 1008.1 - 0.0
17/06:30am 24.2 19.6 5.5 30 9.6 NNE 19 32 10 17 1008.3 - 0.0
17/06:00am 22.9 19.0 5.3 32 9.0 NNE 15 20 8 11 1008.1 1006.6 0.0
17/05:30am 22.0 18.8 5.0 33 8.6 NE 11 17 6 9 1007.9 - 0.0
17/05:00am 21.5 18.2 4.6 33 8.4 NE 11 17 6 9 1007.6 - 0.0
17/04:30am 21.8 18.2 4.8 33 8.5 NE 13 22 7 12 1007.4 - 0.0
17/04:00am 22.0 17.9 4.6 32 8.7 NE 15 22 8 12 1007.1 - 0.0
17/03:30am 22.4 17.6 4.5 31 9.0 NE 19 28 10 15 1007.1 - 0.0
17/03:00am 22.8 17.8 4.8 31 9.1 NE 20 32 11 17 1007.1 1005.5 0.0
17/02:30am 23.2 16.7 4.7 30 9.3 NE 28 37 15 20 1006.9 - 0.0
17/02:00am 23.6 17.1 4.5 29 9.6 NE 28 44 15 24 1007.1 - 0.0
17/01:30am 24.0 17.8 4.4 28 9.9 NE 26 37 14 20 1007.4 - 0.0
17/01:00am 24.2 18.1 4.6 28 9.9 ENE 26 39 14 21 1008.0 - 0.0
17/12:56am 24.2 17.7 4.6 28 9.9 ENE 28 46 15 25 1008.0 - 0.0
17/12:30am 24.4 18.2 4.2 27 10.2 ENE 26 39 14 21 1008.4 - 0.0
17/12:00am 24.6 19.2 4.4 27 10.3 ENE 22 37 12 20 1009.0 1007.4 0.0
 
Date/Time
WST
Temp
°C
App
Temp
°C
Dew
Point
°C
Rel
Hum
%
Delta-T
°C
Wind Press
QNH
hPa
Press
MSL
hPa
Rain since
9am
mm
Dir  Spd
km/h
Gust
km/h
Spd
kts
Gust
kts
16/11:30pm 24.9 18.3 4.1 26 10.5 ENE 28 37 15 20 1009.4 - 0.0
16/11:07pm 25.2 18.6 4.3 26 10.6 ENE 28 46 15 25 1009.5 - 0.0
16/11:00pm 25.3 18.7 4.4 26 10.6 ENE 28 43 15 23 1009.6 - 0.0
16/10:30pm 25.7 19.1 4.2 25 10.9 ENE 28 52 15 28 1009.7 - 0.0
16/10:00pm 25.9 19.7 4.4 25 11.0 ENE 26 41 14 22 1009.8 - 0.0
16/09:30pm 26.5 20.7 4.3 24 11.4 ENE 24 35 13 19 1010.0 - 0.0
16/09:00pm 27.2 20.2 4.3 23 11.8 ENE 30 44 16 24 1009.9 1008.4 0.0
16/08:30pm 27.8 22.0 4.2 22 12.2 ENE 24 33 13 18 1009.9 - 0.0

Other Formats:

Comma delimited format used in spreadsheet applications
http://www.bom.gov.au/fwo/IDW60801/IDW60801.94637.axf

JavaScript Object Notation format (JSON) in row-major order
http://www.bom.gov.au/fwo/IDW60801/IDW60801.94637.json